Latest Weather Observations for Tennant Creek

IDD60801

Issued at 7:35 pm CST Monday 21 April 2014 (issued every 30 minutes, with the page automatically refreshed every 10 minutes)

About weather observations | Map of weather stations | Latest weather observations for NT | Other Formats
Station Details ID: 015135 Name: TENNANT CREEK AIRPORT Lat: -19.64 Lon: 134.18 Height: 375.7 m
Data from the previous 72 hours. | See also: Recent months at Tennant Creek
Date/Time
CST
Temp
°C
App
Temp
°C
Dew
Point
Rel
Hum
%
Delta-T
°C
Wind Press
QNH
hPa
Press
MSL
hPa
Rain
since 9 am
mm
Dir
 
Spd
km/h
Gust
km/h
Spd
kts
Gust
kts
21/07:30pm 24.7 23.3 5.3 28 10.0 E 2 4 1 2 1015.0 - 0.0
21/07:00pm 27.3 24.4 2.7 20 12.3 SE 7 7 4 4 1014.6 - 0.0
21/06:30pm 28.1 25.0 1.5 18 13.1 ESE 7 11 4 6 1014.3 - 0.0
21/06:00pm 29.5 25.4 0.0 15 14.3 E 11 15 6 8 1014.2 1012.0 0.0
21/05:30pm 30.5 25.8 -1.9 12 15.3 E 13 20 7 11 1013.9 - 0.0
21/05:00pm 31.1 28.3 -0.7 13 15.4 NE 4 13 2 7 1013.7 - 0.0
21/04:30pm 31.1 26.5 -0.7 13 15.4 E 13 26 7 14 1013.4 - 0.0
21/04:00pm 31.7 28.0 0.0 13 15.6 ESE 9 17 5 9 1013.4 - 0.0
21/03:30pm 31.7 27.9 -0.9 12 15.8 E 9 20 5 11 1013.3 - 0.0
21/03:00pm 31.5 28.5 1.9 15 15.0 E 7 11 4 6 1013.5 1011.2 0.0
21/02:30pm 31.6 27.1 -0.3 13 15.6 ENE 13 24 7 13 1013.8 - 0.0
21/02:00pm 31.3 28.5 -0.2 13 15.4 SE 4 9 2 5 1014.0 - 0.0
21/01:30pm 31.7 25.4 -1.0 12 15.8 ENE 22 28 12 15 1014.4 - 0.0
21/01:00pm 31.6 26.2 -1.7 11 15.9 ENE 17 32 9 17 1014.7 - 0.0
21/12:30pm 31.2 25.4 -0.1 13 15.3 E 20 28 11 15 1015.2 - 0.0
21/12:00pm 30.2 24.0 -0.5 13 14.8 E 22 32 12 17 1015.9 1013.6 0.0
21/11:30am 29.5 22.9 -0.1 14 14.3 E 24 32 13 17 1016.4 - 0.0
21/11:00am 29.0 22.4 -0.1 15 14.0 ESE 24 32 13 17 1016.9 - 0.0
21/10:30am 28.4 21.8 -0.7 15 13.8 ESE 24 32 13 17 1017.1 - 0.0
21/10:00am 27.2 19.9 0.2 17 12.9 E 28 33 15 18 1017.0 - 0.0
21/09:30am 25.9 19.1 0.5 19 12.1 E 26 35 14 19 1017.1 - 0.0
21/09:00am 24.9 18.4 0.6 20 11.5 E 24 39 13 21 1016.8 1014.6 0.0
21/08:30am 23.3 16.5 0.7 22 10.6 E 26 35 14 19 1016.7 - 0.0
21/08:00am 21.9 15.5 0.8 24 9.8 E 24 33 13 18 1016.4 - 0.0
21/07:30am 20.4 14.0 0.8 27 9.0 E 24 32 13 17 1016.2 - 0.0
21/07:00am 20.0 13.6 0.8 27 8.8 E 24 33 13 18 1015.9 - 0.0
21/06:30am 19.8 13.7 0.7 28 8.7 E 22 30 12 16 1015.5 - 0.0
21/06:00am 19.8 14.1 0.8 28 8.7 E 20 26 11 14 1015.1 1012.8 0.0
21/05:30am 19.6 14.2 1.1 29 8.5 E 19 26 10 14 1015.0 - 0.0
21/05:00am 20.0 14.9 0.8 27 8.8 E 17 26 9 14 1014.6 - 0.0
21/04:30am 20.0 14.9 0.8 27 8.8 E 17 24 9 13 1014.4 - 0.0
21/04:00am 20.0 15.2 0.4 27 8.9 ESE 15 22 8 12 1014.5 - 0.0
21/03:30am 20.9 15.3 0.0 24 9.5 E 19 28 10 15 1014.4 - 0.0
21/03:00am 20.2 15.5 0.8 27 8.9 E 15 24 8 13 1014.4 1012.2 0.0
21/02:30am 20.1 16.2 1.0 28 8.8 ESE 11 15 6 8 1014.6 - 0.0
21/02:00am 21.1 16.7 0.4 25 9.5 ESE 13 17 7 9 1015.2 - 0.0
21/01:30am 21.9 17.1 0.5 24 9.9 ESE 15 20 8 11 1015.4 - 0.0
21/01:00am 21.8 17.9 1.0 25 9.7 E 11 20 6 11 1015.6 - 0.0
21/12:30am 21.1 17.7 1.8 28 9.1 E 9 11 5 6 1015.8 - 0.0
21/12:00am 21.1 17.7 2.1 28 9.0 E 9 11 5 6 1015.9 1013.6 0.0
 
Date/Time
CST
Temp
°C
App
Temp
°C
Dew
Point
Rel
Hum
%
Delta-T
°C
Wind Press
QNH
hPa
Press
MSL
hPa
Rain
since 9 am
mm
Dir
 
Spd
km/h
Gust
km/h
Spd
kts
Gust
kts
20/11:30pm 21.8 18.0 1.7 26 9.5 ENE 11 15 6 8 1016.2 - 0.0
20/11:00pm 22.0 18.2 1.7 26 9.6 NE 11 15 6 8 1016.0 - 0.0
20/10:30pm 21.9 18.5 1.9 26 9.5 E 9 13 5 7 1015.9 - 0.0
20/10:00pm 22.6 19.5 1.5 25 10.0 ESE 7 11 4 6 1016.0 - 0.0
20/09:30pm 23.1 19.7 1.7 24 10.2 E 9 11 5 6 1016.0 - 0.0
20/09:00pm 23.9 20.6 2.2 24 10.5 E 9 11 5 6 1015.8 1013.5 0.0
20/08:30pm 24.2 21.4 3.1 25 10.4 E 7 9 4 5 1015.4 - 0.0
20/08:00pm 24.5 21.5 2.0 23 10.9 E 7 9 4 5 1015.2 - 0.0
20/07:30pm 25.0 21.7 2.3 22 11.1 ENE 9 11 5 6 1014.8 - 0.0
20/07:00pm 26.0 23.2 2.9 22 11.5 ENE 7 9 4 5 1014.4 - 0.0
20/06:30pm 27.1 23.7 2.0 19 12.4 ENE 9 13 5 7 1014.2 - 0.0
20/06:00pm 29.1 25.2 -1.5 13 14.4 ESE 9 13 5 7 1014.0 1011.8 0.0
20/05:30pm 30.0 25.3 -1.8 12 15.0 ENE 13 22 7 12 1013.9 - 0.0
20/05:00pm 30.6 26.5 -3.1 11 15.6 E 9 17 5 9 1013.7 - 0.0
20/04:30pm 30.6 26.3 -1.6 12 15.3 E 11 20 6 11 1013.5 - 0.0
20/04:00pm 30.3 25.6 -2.0 12 15.2 ESE 13 24 7 13 1013.4 - 0.0
20/03:30pm 31.1 26.0 -1.6 12 15.6 ESE 15 22 8 12 1013.3 - 0.0
20/03:00pm 30.7 25.7 -1.3 12 15.3 E 15 26 8 14 1013.5 1011.2 0.0
20/02:30pm 30.8 27.0 -0.6 13 15.2 E 9 17 5 9 1013.7 - 0.0
20/02:00pm 31.1 26.2 -0.7 13 15.4 ENE 15 28 8 15 1014.0 - 0.0
20/01:30pm 30.2 24.9 -0.9 13 14.9 E 17 26 9 14 1014.4 - 0.0
20/01:00pm 30.9 25.0 -0.8 13 15.3 ESE 20 32 11 17 1015.1 - 0.0
20/12:30pm 29.4 22.3 -1.6 13 14.6 E 26 35 14 19 1015.6 - 0.0
20/12:00pm 28.8 21.0 -1.0 14 14.1 E 30 41 16 22 1016.1 1013.9 0.0
20/11:30am 28.7 21.9 0.9 16 13.6 E 26 39 14 21 1016.7 - 0.0
20/11:00am 27.7 20.6 1.3 18 12.9 E 28 46 15 25 1017.1 - 0.0
20/10:30am 26.7 18.6 1.0 18 12.4 E 33 48 18 26 1017.4 - 0.0
20/10:00am 26.2 18.4 1.5 20 12.0 E 32 44 17 24 1017.5 - 0.0
20/09:30am 25.2 17.4 2.0 22 11.3 E 32 43 17 23 1017.3 - 0.0
20/09:00am 24.3 16.3 1.9 23 10.8 E 33 46 18 25 1017.1 1014.9 0.0
20/08:30am 22.8 15.3 1.1 24 10.2 E 30 41 16 22 1017.0 - 0.0
20/08:00am 21.8 14.5 -0.1 23 10.0 E 28 41 15 22 1016.6 - 0.0
20/07:30am 20.3 13.1 -1.7 22 9.6 E 26 33 14 18 1016.4 - 0.0
20/07:00am 19.6 13.1 -2.8 22 9.5 ESE 22 32 12 17 1016.0 - 0.0
20/06:30am 19.6 13.1 -2.8 22 9.5 ESE 22 28 12 15 1015.7 - 0.0
20/06:00am 20.2 14.2 -3.2 20 9.9 E 19 26 10 14 1015.3 1013.0 0.0
20/05:30am 20.0 14.0 -2.7 21 9.7 E 19 28 10 15 1015.2 - 0.0
20/05:00am 20.4 14.4 -3.1 20 10.0 E 19 26 10 14 1015.0 - 0.0
20/04:30am 20.9 15.2 -3.8 18 10.4 E 17 26 9 14 1014.6 - 0.0
20/04:00am 20.3 14.6 -3.8 19 10.1 ESE 17 24 9 13 1014.7 - 0.0
20/03:30am 20.4 15.1 -3.6 19 10.1 ESE 15 22 8 12 1014.7 - 0.0
20/03:00am 20.6 15.6 -4.0 19 10.3 ESE 13 22 7 12 1014.8 1012.6 0.0
20/02:30am 20.6 15.4 -3.1 20 10.1 ESE 15 22 8 12 1015.0 - 0.0
20/02:00am 21.2 16.2 -4.0 18 10.6 ESE 13 20 7 11 1015.1 - 0.0
20/01:30am 21.2 15.9 -3.5 19 10.5 E 15 20 8 11 1015.3 - 0.0
20/01:00am 21.8 16.9 -3.5 18 10.8 E 13 17 7 9 1015.4 - 0.0
20/12:30am 20.4 15.7 -1.5 23 9.6 E 13 15 7 8 1015.6 - 0.0
20/12:00am 21.3 16.6 -1.6 21 10.1 E 13 20 7 11 1015.6 1013.3 0.0
 
Date/Time
CST
Temp
°C
App
Temp
°C
Dew
Point
Rel
Hum
%
Delta-T
°C
Wind Press
QNH
hPa
Press
MSL
hPa
Rain
since 9 am
mm
Dir
 
Spd
km/h
Gust
km/h
Spd
kts
Gust
kts
19/11:30pm 22.3 17.5 -2.3 19 10.8 ESE 13 17 7 9 1015.8 - 0.0
19/11:00pm 23.3 18.5 -2.6 17 11.4 ESE 13 17 7 9 1015.9 - 0.0
19/10:30pm 23.1 19.0 -0.5 21 10.8 E 11 15 6 8 1016.1 - 0.0
19/10:00pm 23.4 19.8 0.5 22 10.7 ESE 9 13 5 7 1016.0 - 0.0
19/09:30pm 24.6 20.4 -0.8 18 11.7 ESE 11 15 6 8 1016.1 - 0.0
19/09:00pm 24.0 20.0 0.3 21 11.1 E 11 13 6 7 1015.8 1013.5 0.0
19/08:30pm 24.5 20.9 0.6 20 11.3 E 9 11 5 6 1015.5 - 0.0
19/08:00pm 24.6 21.1 1.1 21 11.2 E 9 11 5 6 1015.0 - 0.0
19/07:30pm 25.3 21.5 1.5 21 11.5 ENE 11 13 6 7 1014.5 - 0.0
19/07:00pm 25.9 22.3 0.9 19 12.0 E 9 13 5 7 1014.3 - 0.0
19/06:30pm 27.7 23.7 0.6 17 13.1 ENE 11 13 6 7 1014.0 - 0.0
19/06:00pm 29.4 25.3 -0.3 14 14.3 E 11 15 6 8 1013.8 1011.6 0.0
19/05:30pm 30.4 25.6 -2.6 11 15.4 ESE 13 20 7 11 1013.5 - 0.0
19/05:00pm 30.7 26.1 -1.3 12 15.3 ENE 13 20 7 11 1013.4 - 0.0
19/04:30pm 31.3 26.1 -2.5 11 15.9 ENE 15 28 8 15 1013.3 - 0.0
19/04:00pm 31.2 27.4 -0.5 13 15.4 ENE 9 22 5 12 1013.4 - 0.0
19/03:30pm 31.3 25.5 -1.6 12 15.7 ENE 19 30 10 16 1013.6 - 0.0
19/03:00pm 31.3 26.6 -2.0 11 15.8 ESE 13 26 7 14 1013.8 1011.6 0.0
19/02:30pm 30.4 26.2 -0.8 13 15.0 ENE 11 24 6 13 1014.1 - 0.0
19/02:00pm 30.7 25.8 -3.3 11 15.7 SE 13 24 7 13 1014.5 - 0.0
19/01:30pm 30.6 24.6 -3.1 11 15.6 E 19 28 10 15 1015.0 - 0.0
19/01:00pm 30.1 24.5 -3.1 11 15.3 E 17 26 9 14 1015.6 - 0.0
19/12:30pm 29.8 24.2 -3.0 11 15.1 ESE 17 30 9 16 1016.3 - 0.0
19/12:00pm 29.4 22.3 -4.2 11 15.1 E 24 35 13 19 1017.0 1014.8 0.0
19/11:30am 28.6 21.1 -4.5 11 14.7 E 26 39 14 21 1017.4 - 0.0
19/11:00am 28.0 20.2 -4.2 12 14.3 ESE 28 39 15 21 1017.8 - 0.0
19/10:53am 27.3 19.0 -5.2 11 14.1 ESE 30 48 16 26 1017.9 - 0.0
19/10:30am 27.2 18.4 -6.1 11 14.2 E 32 48 17 26 1018.1 - 0.0
19/10:00am 26.2 17.0 -4.7 12 13.4 E 35 50 19 27 1018.2 - 0.0
19/09:30am 25.9 17.1 -4.0 13 13.1 E 33 46 18 25 1018.1 - 0.0
19/09:00am 24.1 15.2 -4.9 14 12.3 ESE 33 48 18 26 1018.0 1015.7 0.0
19/08:30am 23.2 14.6 -4.3 15 11.7 E 32 44 17 24 1018.0 - 0.0
19/08:00am 21.8 13.5 -5.0 16 11.1 ESE 30 46 16 25 1017.8 - 0.0
19/07:51am 21.5 13.6 -4.7 17 10.9 ESE 28 46 15 25 1017.6 - 0.0
19/07:30am 20.8 13.3 -5.0 17 10.6 ESE 26 39 14 21 1017.6 - 0.0
19/07:00am 20.2 13.1 -4.6 18 10.2 ESE 24 35 13 19 1017.3 - 0.0
19/06:30am 20.4 13.2 -5.1 17 10.4 ESE 24 33 13 18 1017.1 - 0.0
19/06:00am 20.3 13.5 -4.8 18 10.3 ESE 22 32 12 17 1016.8 1014.6 0.0
19/05:30am 20.8 13.6 -5.0 17 10.6 ESE 24 32 13 17 1016.7 - 0.0
19/05:00am 21.0 14.2 -5.5 16 10.8 ESE 22 28 12 15 1016.6 - 0.0
19/04:30am 21.1 14.2 -5.8 16 10.9 ESE 22 33 12 18 1016.5 - 0.0
19/04:00am 21.4 14.1 -6.0 15 11.1 ESE 24 33 13 18 1016.4 - 0.0
19/03:30am 21.3 14.9 -5.2 16 10.9 ESE 20 28 11 15 1016.5 - 0.0
19/03:00am 21.4 14.9 -5.5 16 11.0 ESE 20 28 11 15 1016.5 1014.3 0.0
19/02:30am 21.0 15.1 -5.5 16 10.8 ESE 17 22 9 12 1016.5 - 0.0
19/02:00am 21.5 15.5 -6.3 15 11.2 ESE 17 22 9 12 1016.6 - 0.0
19/01:30am 22.3 16.3 -6.8 13 11.7 ESE 17 24 9 13 1016.8 - 0.0
19/01:00am 22.3 16.3 -6.2 14 11.6 ESE 17 26 9 14 1017.0 - 0.0
19/12:30am 22.5 17.0 -5.1 15 11.5 ESE 15 24 8 13 1017.2 - 0.0
19/12:00am 22.5 17.1 -4.1 16 11.3 ESE 15 20 8 11 1017.4 1015.2 0.0
 
Date/Time
CST
Temp
°C
App
Temp
°C
Dew
Point
Rel
Hum
%
Delta-T
°C
Wind Press
QNH
hPa
Press
MSL
hPa
Rain
since 9 am
mm
Dir
 
Spd
km/h
Gust
km/h
Spd
kts
Gust
kts
18/11:30pm 23.0 17.7 -3.4 17 11.4 ESE 15 22 8 12 1017.5 - 0.0
18/11:00pm 23.5 18.3 -2.6 17 11.5 ESE 15 22 8 12 1017.6 - 0.0
18/10:30pm 23.6 18.7 -0.3 20 11.0 ESE 15 22 8 12 1017.6 - 0.0
18/10:00pm 23.9 19.2 0.8 22 10.9 ESE 15 20 8 11 1017.6 - 0.0
18/09:30pm 24.4 20.2 1.4 22 11.0 ESE 13 20 7 11 1017.4 - 0.0
18/09:00pm 25.4 21.5 1.3 20 11.6 ESE 11 17 6 9 1017.4 1015.2 0.0
18/08:30pm 25.7 22.3 1.9 21 11.6 ESE 9 13 5 7 1017.2 - 0.0
18/08:00pm 26.0 22.7 2.5 21 11.6 ESE 9 11 5 6 1016.9 - 0.0

Other Formats:

Comma delimited format used in spreadsheet applications
http://www.bom.gov.au/fwo/IDD60801/IDD60801.94238.axf

JavaScript Object Notation format (JSON) in row-major order
http://www.bom.gov.au/fwo/IDD60801/IDD60801.94238.json